Time;durP1;ratioP1;P1;durP2;ratioP2;P2;SDS_P1;SDS_P2;PMS_P1;PMS_P2;Temp;Humidity;BMP_temperature;BMP_pressure;BME280_temperature;BME280_humidity;BME280_pressure;Samples;Min_cycle;Max_cycle;Signal;HPM_P1;HPM_P2
2022/05/18 00:02:26;;;;;;;5.30;3.30;;;;;;;11.02;88.53;97175.97;109967;1251;59620;-69
2022/05/18 00:04:57;;;;;;;3.30;2.80;;;;;;;10.99;88.63;97179.91;110029;1251;71491;-68
2022/05/18 00:07:27;;;;;;;5.80;3.10;;;;;;;10.94;88.39;97179.00;109962;1250;67856;-68
2022/05/18 00:09:58;;;;;;;4.20;2.90;;;;;;;10.92;88.09;97181.09;109997;1251;68658;-68
2022/05/18 00:12:28;;;;;;;5.10;3.70;;;;;;;10.91;88.01;97176.50;109986;1251;59723;-68
2022/05/18 00:15:00;;;;;;;4.70;3.40;;;;;;;10.88;88.37;97179.64;109983;1251;59736;-68
2022/05/18 00:17:30;;;;;;;5.50;3.30;;;;;;;10.87;88.26;97187.09;109974;1251;70742;-68
2022/05/18 00:20:01;;;;;;;4.20;3.80;;;;;;;10.81;88.99;97191.24;110157;1248;67786;-69
2022/05/18 00:22:31;;;;;;;4.60;3.90;;;;;;;10.80;89.31;97192.00;109905;1250;68666;-69
2022/05/18 00:25:02;;;;;;;6.10;5.00;;;;;;;10.77;89.99;97191.14;109953;1249;59712;-69
2022/05/18 00:27:35;;;;;;;8.50;4.50;;;;;;;10.74;91.46;97196.11;110041;1250;59733;-70
2022/05/18 00:30:10;;;;;;;4.10;3.60;;;;;;;10.73;92.19;97198.98;109917;1251;70531;-67
2022/05/18 00:32:41;;;;;;;6.50;4.20;;;;;;;10.72;92.18;97201.13;110181;1250;68053;-68
2022/05/18 00:35:13;;;;;;;5.00;4.00;;;;;;;10.72;92.17;97209.48;110134;1251;68736;-68
2022/05/18 00:37:44;;;;;;;4.80;3.50;;;;;;;10.73;92.37;97209.45;109950;1250;59678;-70
2022/05/18 00:40:17;;;;;;;5.60;4.50;;;;;;;10.71;92.57;97209.73;110065;1250;59701;-68
2022/05/18 00:42:47;;;;;;;5.40;4.40;;;;;;;10.70;92.52;97206.66;109956;1251;70743;-68
2022/05/18 00:45:19;;;;;;;4.70;4.00;;;;;;;10.69;92.35;97207.80;109916;1251;67873;-69
2022/05/18 00:47:51;;;;;;;4.10;3.70;;;;;;;10.69;91.95;97207.30;109901;1250;69284;-69
2022/05/18 00:50:34;;;;;;;5.70;3.30;;;;;;;10.68;91.66;97206.47;109787;1251;59754;-68
2022/05/18 00:53:21;;;;;;;5.60;4.50;;;;;;;10.64;91.67;97203.09;109891;1251;59652;-70
2022/05/18 00:56:04;;;;;;;4.70;4.30;;;;;;;10.60;92.38;97198.02;110157;1250;70744;-69
2022/05/18 00:58:38;;;;;;;4.70;4.20;;;;;;;10.57;92.69;97204.69;110171;1250;68619;-68
2022/05/18 01:01:10;;;;;;;4.40;4.00;;;;;;;10.57;92.56;97212.00;110208;1250;68622;-68
2022/05/18 01:03:46;;;;;;;4.90;3.90;;;;;;;10.58;92.67;97214.91;110169;1250;59645;-68
2022/05/18 01:06:32;;;;;;;5.70;4.10;;;;;;;10.60;92.90;97219.32;110129;1250;59719;-70
2022/05/18 01:09:07;;;;;;;4.00;3.60;;;;;;;10.60;92.92;97227.30;110044;1251;70025;-69
2022/05/18 01:11:41;;;;;;;5.90;5.20;;;;;;;10.60;92.67;97236.92;110058;1251;68589;-69
2022/05/18 01:14:21;;;;;;;5.60;5.00;;;;;;;10.60;92.91;97244.44;109880;1251;69381;-69
2022/05/18 01:16:52;;;;;;;6.20;5.60;;;;;;;10.59;92.94;97251.10;110065;1250;59738;-68
2022/05/18 01:20:02;;;;;;;7.50;5.00;;;;;;;10.57;93.41;97251.26;110161;1250;59719;-69
2022/05/18 01:22:43;;;;;;;7.70;5.70;;;;;;;10.56;93.80;97251.01;109313;1257;70779;-68
2022/05/18 01:25:33;;;;;;;6.30;5.60;;;;;;;10.55;94.05;97248.98;109346;1257;68698;-70
2022/05/18 01:28:07;;;;;;;;;;;;;;;10.54;94.43;97249.70;109247;1257;68693;-70
2022/05/18 01:30:47;;;;;;;6.10;5.20;;;;;;;10.51;94.29;97246.48;109147;1257;59864;-68
2022/05/18 01:33:21;;;;;;;6.70;6.00;;;;;;;10.48;94.29;97248.28;109060;1257;59701;-71
2022/05/18 01:35:53;;;;;;;5.90;5.30;;;;;;;10.46;94.16;97246.85;108995;1257;71008;-68
2022/05/18 01:38:25;;;;;;;6.70;6.00;;;;;;;10.42;94.18;97241.16;109193;1260;68635;-69
2022/05/18 01:41:05;;;;;;;6.20;5.60;;;;;;;10.42;93.69;97243.31;109121;1259;69475;-69
2022/05/18 01:43:53;;;;;;;5.20;4.70;;;;;;;10.40;93.42;97250.05;109122;1257;59860;-68
2022/05/18 01:46:34;;;;;;;6.50;5.00;;;;;;;10.39;93.40;97249.77;109066;1260;59644;-70
2022/05/18 01:49:04;;;;;;;5.20;4.70;;;;;;;10.38;93.17;97250.76;109256;1259;71523;-69
2022/05/18 01:51:45;;;;;;;5.00;4.50;;;;;;;10.36;93.49;97252.16;109253;1257;68252;-68
2022/05/18 01:54:17;;;;;;;5.20;4.70;;;;;;;10.32;94.26;97251.58;109101;1257;69481;-69
2022/05/18 01:56:48;;;;;;;5.80;4.90;;;;;;;10.29;94.26;97254.04;108997;1258;59786;-68
2022/05/18 01:59:19;;;;;;;5.90;4.20;;;;;;;10.25;94.72;97255.19;109429;1250;59715;-68
2022/05/18 02:01:54;;;;;;;5.00;4.40;;;;;;;10.24;94.61;97255.44;110209;1250;71537;-68
2022/05/18 02:04:25;;;;;;;5.30;4.70;;;;;;;10.22;94.65;97260.27;109988;1250;68580;-70
2022/05/18 02:06:55;;;;;;;5.90;4.90;;;;;;;10.20;94.32;97265.41;109907;1251;68833;-70
2022/05/18 02:09:30;;;;;;;6.10;5.20;;;;;;;10.18;94.63;97264.17;109803;1251;59770;-69
2022/05/18 02:12:07;;;;;;;5.90;5.30;;;;;;;10.18;94.74;97260.56;110192;1250;59674;-70
2022/05/18 02:14:41;;;;;;;5.60;4.60;;;;;;;10.18;94.55;97261.23;110032;1250;71403;-69
2022/05/18 02:17:15;;;;;;;6.90;5.00;;;;;;;10.16;94.59;97265.38;110177;1249;68071;-69
2022/05/18 02:19:48;;;;;;;5.90;5.00;;;;;;;10.16;94.92;97258.56;109678;1251;69768;-70
2022/05/18 02:22:18;;;;;;;5.60;4.90;;;;;;;10.15;94.68;97258.50;110248;1249;59618;-69
2022/05/18 02:24:50;;;;;;;5.90;5.30;;;;;;;10.13;93.59;97256.58;110034;1251;59576;-68
2022/05/18 02:27:21;;;;;;;5.80;4.10;;;;;;;10.10;93.59;97258.84;109931;1250;71522;-68
2022/05/18 02:29:52;;;;;;;6.10;5.50;;;;;;;10.11;92.97;97261.55;110220;1250;67582;-69
2022/05/18 02:32:23;;;;;;;5.30;4.80;;;;;;;10.09;93.17;97263.99;110187;1250;69397;-68
2022/05/18 02:35:01;;;;;;;5.00;4.10;;;;;;;10.07;93.18;97265.34;109712;1251;59730;-70
2022/05/18 02:37:34;;;;;;;5.60;4.70;;;;;;;10.05;92.94;97267.47;110030;1250;59748;-68
2022/05/18 02:40:07;;;;;;;4.80;4.30;;;;;;;10.03;93.02;97269.35;109996;1250;71564;-68
2022/05/18 02:42:37;;;;;;;5.70;4.90;;;;;;;10.00;93.71;97270.91;110097;1249;67749;-69
2022/05/18 02:45:11;;;;;;;6.10;5.10;;;;;;;9.99;93.86;97272.77;109943;1251;68708;-69
2022/05/18 02:47:42;;;;;;;6.10;4.80;;;;;;;9.99;93.40;97277.59;109820;1251;59751;-69
2022/05/18 02:50:12;;;;;;;5.20;4.70;;;;;;;9.98;93.70;97283.80;110178;1248;59657;-68
2022/05/18 02:52:41;;;;;;;5.00;4.50;;;;;;;9.99;93.13;97293.13;109909;1251;70839;-69
2022/05/18 02:58:02;;;;;;;5.80;5.20;;;;;;;10.02;91.45;97310.30;110157;1249;69458;-69
2022/05/18 03:00:34;;;;;;;5.30;4.80;;;;;;;10.01;90.92;97316.48;109992;1250;59648;-70
2022/05/18 03:03:05;;;;;;;4.30;3.90;;;;;;;10.05;90.95;97327.17;109954;1251;59674;-70
2022/05/18 03:05:39;;;;;;;6.20;5.10;;;;;;;10.04;91.25;97338.17;109946;1251;71517;-69
2022/05/18 03:08:09;;;;;;;5.00;4.40;;;;;;;10.05;92.01;97347.67;110174;1250;68034;-68
2022/05/18 03:10:41;;;;;;;7.30;5.40;;;;;;;10.05;92.20;97351.02;110170;1250;68832;-69
2022/05/18 03:13:11;;;;;;;5.20;4.50;;;;;;;10.05;92.46;97356.93;109926;1251;59727;-68
2022/05/18 03:15:41;;;;;;;5.90;5.20;;;;;;;10.08;92.17;97358.80;110151;1250;59672;-70
2022/05/18 03:18:10;;;;;;;4.90;3.90;;;;;;;10.08;92.22;97361.93;109939;1250;70736;-68
2022/05/18 03:23:33;;;;;;;6.40;5.80;;;;;;;10.11;91.55;97374.07;110153;1250;68648;-67
2022/05/18 03:26:17;;;;;;;6.70;5.20;;;;;;;10.11;92.44;97379.97;110132;1250;59659;-70
2022/05/18 03:28:50;;;;;;;5.20;4.70;;;;;;;10.10;92.29;97388.09;110118;1250;59747;-68
2022/05/18 03:31:19;;;;;;;5.30;4.60;;;;;;;10.11;91.37;97393.23;110142;1250;70787;-69
2022/05/18 03:33:50;;;;;;;6.10;5.50;;;;;;;10.12;91.35;97389.32;110167;1250;68538;-69
2022/05/18 03:36:20;;;;;;;5.40;4.90;;;;;;;10.10;91.29;97391.20;110018;1250;69242;-69
2022/05/18 03:38:52;;;;;;;5.60;5.00;;;;;;;10.14;90.66;97390.24;110032;1251;59688;-70
2022/05/18 03:41:22;;;;;;;6.30;4.50;;;;;;;10.13;90.99;97394.80;110172;1250;59682;-67
2022/05/18 03:43:53;;;;;;;4.70;4.30;;;;;;;10.13;90.71;97391.83;109988;1250;70602;-69
2022/05/18 03:46:22;;;;;;;;;;;;;;;10.15;90.37;97392.41;109941;1250;68557;-68
2022/05/18 03:48:52;;;;;;;5.10;4.50;;;;;;;10.14;89.88;97392.84;110046;1250;69491;-70
2022/05/18 03:51:22;;;;;;;6.50;4.20;;;;;;;10.11;89.63;97397.92;110053;1250;60222;-67
2022/05/18 03:53:52;;;;;;;6.10;5.30;;;;;;;10.08;89.29;97409.46;110200;1250;59690;-67
2022/05/18 03:56:21;;;;;;;;;;;;;;;10.02;88.67;97415.08;110096;1250;71632;-68
2022/05/18 03:58:51;;;;;;;7.50;4.30;;;;;;;10.02;89.16;97423.79;109971;1250;67733;-68
2022/05/18 04:01:20;;;;;;;5.80;4.80;;;;;;;10.04;89.43;97426.67;109892;1251;69222;-68
2022/05/18 04:03:49;;;;;;;5.70;5.10;;;;;;;10.03;89.31;97428.45;110238;1249;59881;-67
2022/05/18 04:06:18;;;;;;;7.40;4.90;;;;;;;10.04;89.39;97430.67;110116;1249;59689;-70
2022/05/18 04:08:49;;;;;;;5.50;5.00;;;;;;;10.02;88.70;97433.73;110089;1250;71550;-70
2022/05/18 04:11:19;;;;;;;5.30;4.80;;;;;;;10.04;88.34;97433.40;110124;1250;67715;-69
2022/05/18 04:13:48;;;;;;;4.80;3.90;;;;;;;10.09;87.81;97435.88;109921;1250;69246;-71
2022/05/18 04:16:17;;;;;;;5.70;3.80;;;;;;;10.16;86.54;97439.04;110013;1249;59723;-69
2022/05/18 04:18:46;;;;;;;4.10;3.70;;;;;;;10.23;85.62;97441.35;110004;1251;59667;-67
2022/05/18 04:21:16;;;;;;;4.00;3.60;;;;;;;10.28;84.47;97441.52;109887;1251;71652;-71
2022/05/18 04:23:45;;;;;;;4.80;3.40;;;;;;;10.35;83.91;97443.33;110110;1249;67890;-69
2022/05/18 04:26:14;;;;;;;3.60;3.30;;;;;;;10.38;83.69;97443.79;110079;1250;69911;-70
2022/05/18 04:28:43;;;;;;;4.00;3.50;;;;;;;10.37;83.66;97446.23;110183;1250;59689;-69
2022/05/18 04:31:13;;;;;;;5.10;3.20;;;;;;;10.39;83.63;97447.56;109884;1251;59664;-69
2022/05/18 04:33:42;;;;;;;3.30;3.00;;;;;;;10.35;82.90;97450.94;110035;1250;71389;-68
2022/05/18 04:36:11;;;;;;;4.10;3.30;;;;;;;10.31;82.06;97457.17;109977;1249;67680;-70
2022/05/18 04:38:41;;;;;;;4.50;3.90;;;;;;;10.29;82.19;97463.42;110135;1250;69279;-70
2022/05/18 04:41:11;;;;;;;4.20;3.60;;;;;;;10.30;82.09;97468.55;110089;1249;59609;-68
2022/05/18 04:43:40;;;;;;;;;;;;;;;10.29;81.94;97471.61;110084;1248;59622;-68
2022/05/18 04:46:10;;;;;;;4.10;3.60;;;;;;;10.28;82.36;97473.73;109998;1248;71532;-70
2022/05/18 04:48:41;;;;;;;4.70;3.20;;;;;;;10.24;83.07;97478.20;110112;1247;68534;-69
2022/05/18 04:51:10;;;;;;;4.30;3.30;;;;;;;10.28;82.31;97480.35;110096;1250;69250;-67
2022/05/18 04:53:39;;;;;;;3.40;2.90;;;;;;;10.36;79.74;97479.77;110064;1250;59769;-70
2022/05/18 04:56:08;;;;;;;3.30;2.50;;;;;;;10.46;79.02;97482.41;109857;1250;59719;-69
2022/05/18 04:58:37;;;;;;;3.80;2.60;;;;;;;10.47;77.57;97485.61;110087;1250;70780;-69
2022/05/18 05:01:08;;;;;;;4.50;2.50;;;;;;;10.43;77.86;97491.02;109974;1250;67344;-68
2022/05/18 05:03:38;;;;;;;3.10;2.30;;;;;;;10.53;77.00;97495.87;110090;1250;69503;-69
2022/05/18 05:06:07;;;;;;;4.00;2.70;;;;;;;10.82;77.79;97500.04;109852;1248;59726;-69
2022/05/18 05:08:37;;;;;;;3.50;2.30;;;;;;;11.17;74.59;97499.58;109955;1249;59724;-69
2022/05/18 05:11:07;;;;;;;5.00;2.40;;;;;;;11.48;71.52;97504.72;109941;1251;71621;-70
2022/05/18 05:13:37;;;;;;;5.00;2.20;;;;;;;11.88;68.78;97508.38;110182;1250;68918;-71
2022/05/18 05:16:08;;;;;;;6.70;1.90;;;;;;;12.25;65.57;97512.91;110075;1246;69428;-69
2022/05/18 05:18:39;;;;;;;4.00;1.80;;;;;;;12.62;62.46;97514.51;110131;1249;59733;-68
2022/05/18 05:21:10;;;;;;;2.30;1.40;;;;;;;12.90;61.57;97515.96;110198;1250;59744;-69
2022/05/18 05:23:40;;;;;;;1.60;1.20;;;;;;;13.21;59.40;97522.05;110250;1250;70757;-70
2022/05/18 05:26:10;;;;;;;3.50;1.50;;;;;;;13.48;56.44;97525.58;110173;1250;68097;-70
2022/05/18 05:28:40;;;;;;;1.90;1.20;;;;;;;13.61;54.21;97529.41;110200;1250;69398;-69
2022/05/18 05:31:11;;;;;;;;;;;;;;;13.57;52.64;97536.01;110074;1250;59668;-69
2022/05/18 05:33:41;;;;;;;4.10;1.50;;;;;;;13.61;53.05;97534.80;110166;1250;59703;-68
2022/05/18 05:36:13;;;;;;;4.50;1.80;;;;;;;13.40;53.39;97543.23;110192;1248;71842;-67
2022/05/18 05:38:42;;;;;;;;;;;;;;;13.43;53.14;97548.25;110183;1249;68597;-67
2022/05/18 05:41:11;;;;;;;4.00;1.60;;;;;;;13.41;53.78;97552.95;110102;1250;68685;-68
2022/05/18 05:43:41;;;;;;;2.80;1.60;;;;;;;13.30;53.34;97557.01;110156;1250;59697;-68
2022/05/18 05:46:15;;;;;;;3.80;1.50;;;;;;;13.23;53.05;97561.90;110087;1249;59682;-68
2022/05/18 05:48:46;;;;;;;2.80;1.50;;;;;;;13.16;54.11;97572.08;109946;1250;71611;-69
2022/05/18 05:51:16;;;;;;;2.60;1.50;;;;;;;13.23;54.81;97581.17;110170;1249;67603;-69
2022/05/18 05:53:47;;;;;;;3.90;1.60;;;;;;;13.15;53.62;97584.92;109952;1250;68654;-69
2022/05/18 05:56:15;;;;;;;4.20;1.60;;;;;;;13.28;53.00;97579.55;109811;1251;59712;-68
2022/05/18 05:58:44;;;;;;;4.20;1.50;;;;;;;13.48;52.60;97588.60;110170;1250;59749;-68
2022/05/18 06:01:14;;;;;;;2.60;1.50;;;;;;;13.75;52.54;97583.98;109924;1250;70946;-69
2022/05/18 06:03:44;;;;;;;2.60;1.30;;;;;;;13.94;50.61;97587.07;110150;1250;68593;-69
2022/05/18 06:06:13;;;;;;;3.40;1.10;;;;;;;14.14;50.88;97587.33;110145;1249;69411;-68
2022/05/18 06:08:43;;;;;;;4.30;1.70;;;;;;;14.50;49.65;97594.08;110164;1250;59689;-69
2022/05/18 06:11:12;;;;;;;4.60;1.60;;;;;;;14.65;48.59;97593.65;110211;1249;59722;-68
2022/05/18 06:13:41;;;;;;;4.70;1.70;;;;;;;14.89;46.91;97600.90;110206;1249;70762;-68
2022/05/18 06:16:10;;;;;;;3.60;1.40;;;;;;;15.00;46.04;97605.73;109923;1250;67674;-68
2022/05/18 06:18:40;;;;;;;4.00;1.40;;;;;;;15.24;46.13;97612.00;110146;1248;69599;-68
2022/05/18 06:21:08;;;;;;;3.10;1.30;;;;;;;15.36;45.65;97614.17;110175;1248;59680;-69
2022/05/18 06:23:38;;;;;;;3.50;1.40;;;;;;;15.45;44.32;97616.17;110180;1248;59738;-68
2022/05/18 06:26:07;;;;;;;3.80;1.40;;;;;;;15.44;43.71;97620.95;110155;1250;71360;-68
2022/05/18 06:28:36;;;;;;;3.40;1.40;;;;;;;15.59;44.20;97625.94;110122;1250;68630;-68
2022/05/18 06:31:06;;;;;;;1.70;1.20;;;;;;;15.85;44.46;97627.84;110195;1249;68647;-69
2022/05/18 06:33:35;;;;;;;2.60;1.40;;;;;;;16.21;44.21;97631.44;109974;1249;59718;-69
2022/05/18 06:36:04;;;;;;;2.60;1.60;;;;;;;16.51;43.70;97628.59;110244;1248;59715;-68
2022/05/18 06:38:33;;;;;;;2.70;1.30;;;;;;;16.71;42.12;97632.55;110217;1249;71586;-69
2022/05/18 06:43:56;;;;;;;2.60;1.30;;;;;;;16.51;41.96;97640.03;109957;1250;68782;-68
2022/05/18 06:46:27;;;;;;;2.60;1.30;;;;;;;16.79;41.79;97644.32;110156;1249;59697;-69
2022/05/18 06:48:56;;;;;;;2.90;1.30;;;;;;;16.86;40.92;97644.17;110211;1250;59681;-68
2022/05/18 06:51:28;;;;;;;2.30;1.30;;;;;;;16.58;41.12;97651.55;110173;1248;70758;-68
2022/05/18 06:53:57;;;;;;;2.30;1.20;;;;;;;16.46;41.31;97659.21;110183;1249;68625;-69
2022/05/18 06:56:33;;;;;;;4.30;1.40;;;;;;;17.01;41.12;97667.77;109950;1250;68657;-68
2022/05/18 06:59:03;;;;;;;3.80;1.30;;;;;;;17.07;38.74;97666.27;110190;1250;59708;-68
2022/05/18 07:01:33;;;;;;;3.10;1.20;;;;;;;17.20;36.39;97668.11;110084;1250;59666;-71
2022/05/18 07:04:03;;;;;;;4.10;1.20;;;;;;;17.16;36.62;97671.42;110216;1248;71671;-68
2022/05/18 07:06:35;;;;;;;2.50;1.30;;;;;;;17.03;34.89;97676.91;109963;1249;67940;-68
2022/05/18 07:09:07;;;;;;;2.80;1.10;;;;;;;16.89;34.28;97679.29;109959;1250;69547;-69
2022/05/18 07:11:43;;;;;;;2.70;1.20;;;;;;;17.43;35.69;97684.98;110005;1249;59765;-69
2022/05/18 07:14:14;;;;;;;4.20;1.30;;;;;;;17.62;34.60;97688.70;110047;1250;59605;-69
2022/05/18 07:16:43;;;;;;;3.00;1.00;;;;;;;17.69;33.62;97690.23;110015;1250;71505;-68
2022/05/18 07:19:14;;;;;;;3.80;1.40;;;;;;;17.75;32.85;97687.70;109971;1250;68597;-71
2022/05/18 07:21:43;;;;;;;5.50;1.30;;;;;;;17.35;33.32;97687.92;110051;1250;69463;-68
2022/05/18 07:24:14;;;;;;;2.50;1.30;;;;;;;16.50;34.83;97699.93;109915;1250;59696;-71
2022/05/18 07:26:44;;;;;;;2.70;1.20;;;;;;;16.31;35.49;97709.21;110001;1250;59691;-69
2022/05/18 07:29:12;;;;;;;;;;;;;;;16.79;35.80;97704.65;109758;1251;71027;-70
2022/05/18 07:34:30;;;;;;;5.10;1.20;;;;;;;17.50;33.35;97718.00;109980;1249;69507;-70
2022/05/18 07:36:59;;;;;;;2.50;1.20;;;;;;;17.59;32.87;97716.48;110039;1250;59739;-69
2022/05/18 07:39:28;;;;;;;1.90;1.10;;;;;;;17.52;32.56;97727.70;109980;1250;59694;-70
2022/05/18 07:41:58;;;;;;;3.50;1.30;;;;;;;17.33;32.23;97739.23;109926;1251;71361;-76
2022/05/18 07:44:28;;;;;;;2.50;1.40;;;;;;;17.13;32.30;97744.27;109912;1248;68385;-70
2022/05/18 07:46:57;;;;;;;4.50;3.90;;;;;;;17.00;33.24;97751.33;110040;1250;67863;-71
2022/05/18 07:49:26;;;;;;;2.90;1.30;;;;;;;17.11;33.28;97753.98;110005;1249;59741;-71
2022/05/18 07:51:55;;;;;;;1.40;1.20;;;;;;;17.37;31.92;97755.73;109831;1250;59621;-71
2022/05/18 07:54:24;;;;;;;4.20;1.40;;;;;;;17.77;31.24;97757.42;109940;1250;70818;-73
2022/05/18 07:56:53;;;;;;;3.80;1.30;;;;;;;18.02;31.28;97760.44;109946;1250;67857;-70
2022/05/18 07:59:22;;;;;;;1.70;1.10;;;;;;;17.86;30.96;97767.80;109908;1250;69443;-70
2022/05/18 08:01:52;;;;;;;3.50;1.50;;;;;;;17.93;31.36;97771.35;109984;1250;59683;-70
2022/05/18 08:04:20;;;;;;;4.40;1.30;;;;;;;18.07;30.21;97773.33;109936;1250;59673;-72
2022/05/18 08:06:50;;;;;;;3.60;1.20;;;;;;;17.88;29.69;97777.05;109965;1250;71584;-72
2022/05/18 08:09:22;;;;;;;2.60;1.20;;;;;;;17.77;29.07;97781.69;109972;1250;67814;-70
2022/05/18 08:17:28;;;;;;;3.20;1.10;;;;;;;18.04;29.66;97791.98;109886;1250;59722;-71
2022/05/18 08:19:57;;;;;;;3.30;1.00;;;;;;;18.15;30.28;97799.40;109917;1250;70843;-72
2022/05/18 08:22:27;;;;;;;2.10;1.10;;;;;;;17.72;28.54;97804.40;109933;1250;67771;-71
2022/05/18 08:24:56;;;;;;;2.70;1.10;;;;;;;17.72;29.23;97804.21;109737;1251;68675;-71
2022/05/18 08:27:25;;;;;;;2.40;1.10;;;;;;;17.90;29.76;97808.11;109922;1250;59694;-71
2022/05/18 08:30:10;;;;;;;3.20;1.30;;;;;;;18.15;29.50;97808.21;109847;1250;59663;-70
2022/05/18 08:32:39;;;;;;;3.80;1.30;;;;;;;18.75;28.10;97804.60;110058;1250;70928;-70
2022/05/18 08:35:10;;;;;;;3.30;1.10;;;;;;;19.02;28.79;97813.46;109957;1250;67794;-71
2022/05/18 08:37:46;;;;;;;3.60;1.20;;;;;;;19.22;27.22;97814.29;109985;1250;69075;-72
2022/05/18 08:40:28;;;;;;;6.60;1.70;;;;;;;19.18;27.19;97816.98;109997;1250;59822;-73
2022/05/18 08:43:04;;;;;;;3.00;1.00;;;;;;;19.10;27.51;97819.98;109964;1250;59668;-72
2022/05/18 08:45:38;;;;;;;3.40;1.20;;;;;;;19.21;27.04;97824.81;110033;1250;71360;-71
2022/05/18 08:48:36;;;;;;;2.40;1.10;;;;;;;19.08;27.51;97828.40;110015;1250;68684;-70
2022/05/18 08:51:16;;;;;;;2.40;1.00;;;;;;;18.87;26.85;97834.40;109977;1250;69541;-71
2022/05/18 08:54:32;;;;;;;2.50;0.90;;;;;;;19.11;27.63;97836.38;109986;1250;59663;-71
2022/05/18 08:57:04;;;;;;;1.30;1.10;;;;;;;19.35;26.20;97841.43;110006;1250;59770;-71
2022/05/18 08:59:37;;;;;;;3.20;1.00;;;;;;;19.00;26.84;97850.60;110056;1250;71557;-71
2022/05/18 09:02:23;;;;;;;2.50;0.90;;;;;;;18.93;26.07;97854.34;110005;1249;68096;-72
2022/05/18 09:04:57;;;;;;;1.60;0.80;;;;;;;18.54;26.63;97857.42;110057;1250;69569;-73
2022/05/18 09:08:00;;;;;;;2.60;0.90;;;;;;;19.09;25.81;97858.58;110132;1249;59684;-71
2022/05/18 09:10:38;;;;;;;1.70;0.90;;;;;;;19.24;25.01;97845.30;109967;1250;59725;-70
2022/05/18 09:13:07;;;;;;;3.50;0.80;;;;;;;19.35;25.00;97858.90;110197;1250;70751;-71
2022/05/18 09:15:42;;;;;;;2.10;0.80;;;;;;;19.49;24.12;97860.48;110161;1249;68462;-72
2022/05/18 09:18:52;;;;;;;1.90;0.90;;;;;;;19.74;24.36;97864.62;110263;1248;68642;-71
2022/05/18 09:21:29;;;;;;;1.20;0.80;;;;;;;19.71;25.52;97863.73;110183;1250;59733;-72
2022/05/18 09:24:17;;;;;;;2.00;0.90;;;;;;;19.63;23.93;97865.41;110193;1249;59682;-72
2022/05/18 09:27:10;;;;;;;1.40;0.70;;;;;;;19.51;22.82;97867.92;110003;1249;71648;-71
2022/05/18 09:29:57;;;;;;;2.90;1.00;;;;;;;19.50;24.32;97875.24;110172;1250;68093;-71
2022/05/18 09:32:49;;;;;;;4.40;2.30;;;;;;;19.89;24.16;97868.56;110136;1250;68651;-71
2022/05/18 09:35:37;;;;;;;5.20;2.20;;;;;;;20.19;23.36;97881.91;110166;1248;59699;-72
2022/05/18 09:38:29;;;;;;;2.60;1.70;;;;;;;20.59;23.02;97883.02;109961;1250;59661;-72
2022/05/18 09:41:00;;;;;;;3.40;1.70;;;;;;;20.94;22.23;97883.34;110178;1249;71664;-72
2022/05/18 09:43:40;;;;;;;3.40;1.30;;;;;;;20.82;22.18;97881.57;110214;1250;66708;-72
2022/05/18 09:46:13;;;;;;;2.20;1.00;;;;;;;20.37;23.44;97886.04;110168;1250;68671;-70
2022/05/18 09:48:55;;;;;;;1.40;1.20;;;;;;;20.30;23.16;97887.77;109929;1249;59739;-71
2022/05/18 09:51:26;;;;;;;1.40;0.90;;;;;;;20.51;21.85;97886.18;109891;1250;59709;-71
2022/05/18 09:53:58;;;;;;;1.40;0.90;;;;;;;20.52;22.57;97882.37;109837;1250;70572;-72
2022/05/18 09:56:47;;;;;;;2.70;0.60;;;;;;;20.36;22.99;97886.29;110062;1250;67957;-70
2022/05/18 09:59:22;;;;;;;0.90;0.70;;;;;;;20.05;23.04;97892.75;109280;1250;69441;-71
2022/05/18 10:07:28;;;;;;;2.00;0.90;;;;;;;20.55;23.02;97887.90;110181;1249;69591;-71
2022/05/18 10:10:10;;;;;;;1.30;0.50;;;;;;;20.79;23.21;97903.25;110162;1248;68596;-70
2022/05/18 10:12:48;;;;;;;1.50;0.70;;;;;;;21.03;22.11;97902.98;109927;1250;69533;-71
2022/05/18 10:15:20;;;;;;;0.90;0.60;;;;;;;21.00;21.83;97898.05;110121;1250;59776;-70
2022/05/18 10:17:54;;;;;;;1.10;0.60;;;;;;;20.94;21.89;97907.81;110156;1248;59738;-73
2022/05/18 10:20:33;;;;;;;2.00;0.70;;;;;;;20.66;22.00;97912.86;109872;1250;72243;-72
2022/05/18 10:23:46;;;;;;;2.80;0.60;;;;;;;20.37;22.93;97916.27;109919;1250;67862;-71
2022/05/18 10:26:40;;;;;;;1.80;0.80;;;;;;;20.34;22.84;97905.34;109377;1256;68758;-72
2022/05/18 10:29:12;;;;;;;1.60;0.70;;;;;;;19.77;22.83;97908.74;109434;1256;59709;-72
2022/05/18 10:32:03;;;;;;;2.50;0.70;;;;;;;19.60;22.61;97912.63;109374;1256;59601;-71
2022/05/18 10:34:44;;;;;;;2.40;0.70;;;;;;;19.34;24.34;97915.05;109459;1256;72230;-70
2022/05/18 10:37:25;;;;;;;1.00;0.60;;;;;;;19.66;24.45;97915.14;109374;1256;68629;-73
2022/05/18 10:40:20;;;;;;;2.50;0.70;;;;;;;19.60;23.57;97914.71;109402;1256;69392;-71
2022/05/18 10:42:54;;;;;;;1.80;0.80;;;;;;;19.80;23.28;97911.11;109409;1256;59843;-72
2022/05/18 10:45:26;;;;;;;2.00;0.50;;;;;;;19.99;24.42;97911.63;109406;1256;59757;-71
2022/05/18 10:48:05;;;;;;;2.90;0.70;;;;;;;20.09;23.01;97901.77;109593;1256;71438;-72
2022/05/18 10:50:38;;;;;;;1.00;0.70;;;;;;;19.92;22.58;97908.47;109423;1256;68706;-72
2022/05/18 10:53:13;;;;;;;2.90;0.90;;;;;;;19.85;23.21;97912.88;109505;1256;69555;-72
2022/05/18 10:55:57;;;;;;;2.40;0.70;;;;;;;19.69;24.88;97916.58;109462;1256;59853;-70
2022/05/18 10:58:38;;;;;;;1.20;0.90;;;;;;;19.74;23.99;97920.69;109506;1256;59656;-70
2022/05/18 11:01:12;;;;;;;1.00;0.60;;;;;;;19.98;23.86;97919.29;109534;1250;72224;-71
2022/05/18 11:03:57;;;;;;;1.60;0.70;;;;;;;20.25;23.39;97918.61;109945;1250;67842;-69
2022/05/18 11:06:32;;;;;;;1.90;0.60;;;;;;;20.09;22.27;97915.30;110094;1249;69581;-69
2022/05/18 11:09:04;;;;;;;0.70;0.60;;;;;;;20.36;22.73;97913.20;110220;1249;59668;-70
2022/05/18 11:12:00;;;;;;;0.50;0.50;;;;;;;20.60;21.45;97915.67;110026;1250;59687;-70
2022/05/18 11:15:00;;;;;;;3.30;0.90;;;;;;;20.74;22.28;97921.03;110189;1249;70621;-71
2022/05/18 11:17:45;;;;;;;0.80;0.60;;;;;;;20.66;21.72;97922.83;110160;1248;67672;-71
2022/05/18 11:20:53;;;;;;;0.90;0.50;;;;;;;20.59;21.73;97921.31;109946;1249;68254;-71
2022/05/18 11:23:35;;;;;;;1.50;0.60;;;;;;;20.86;21.51;97925.70;110166;1250;59681;-69
2022/05/18 11:26:28;;;;;;;2.10;0.60;;;;;;;20.89;21.45;97925.39;110169;1249;59663;-71
2022/05/18 11:29:14;;;;;;;1.60;0.60;;;;;;;20.48;21.19;97928.60;110144;1250;71569;-70
2022/05/18 11:31:49;;;;;;;0.70;0.60;;;;;;;20.37;21.63;97921.78;110170;1249;67824;-72
2022/05/18 11:34:48;;;;;;;1.10;0.50;;;;;;;20.43;21.16;97919.41;109999;1249;69484;-70
2022/05/18 11:37:41;;;;;;;0.80;0.50;;;;;;;20.16;21.60;97917.95;110186;1248;59757;-70
2022/05/18 11:40:30;;;;;;;1.10;0.50;;;;;;;20.44;21.06;97916.43;110161;1249;59672;-70
2022/05/18 11:43:35;;;;;;;1.60;0.50;;;;;;;20.71;20.91;97917.67;110011;1250;71619;-70
2022/05/18 11:46:10;;;;;;;0.30;0.30;;;;;;;20.51;20.91;97921.04;110169;1249;67841;-71
2022/05/18 11:48:51;;;;;;;1.20;0.50;;;;;;;20.44;21.46;97919.86;110145;1249;69034;-69
2022/05/18 11:51:52;;;;;;;1.00;0.50;;;;;;;20.46;21.65;97920.52;110228;1250;59810;-72
2022/05/18 11:55:08;;;;;;;1.10;0.70;;;;;;;20.62;21.65;97923.64;110203;1250;59660;-70
2022/05/18 11:57:40;;;;;;;1.30;0.40;;;;;;;20.56;21.85;97920.03;109459;1256;71267;-71
2022/05/18 12:00:44;;;;;;;1.40;0.40;;;;;;;20.66;20.57;97917.90;109454;1255;69059;-70
2022/05/18 12:03:43;;;;;;;0.90;0.50;;;;;;;20.46;21.63;97916.95;109416;1255;68745;-70
2022/05/18 12:06:21;;;;;;;2.30;0.60;;;;;;;20.39;22.97;97917.36;109418;1256;60103;-70
2022/05/18 12:09:10;;;;;;;1.00;0.60;;;;;;;20.35;22.70;97917.35;109457;1256;59652;-70
2022/05/18 12:11:57;;;;;;;1.70;0.30;;;;;;;20.27;22.26;97923.13;109446;1256;70877;-69
2022/05/18 12:15:10;;;;;;;1.00;0.60;;;;;;;20.22;22.08;97924.73;109201;1256;67864;-69
2022/05/18 12:17:51;;;;;;;1.50;0.70;;;;;;;20.21;22.63;97925.11;109410;1256;68809;-70
2022/05/18 12:20:31;;;;;;;1.10;0.50;;;;;;;20.32;22.86;97928.42;109483;1256;59638;-71
2022/05/18 12:23:01;;;;;;;;;;;;;;;20.22;22.20;97935.19;109402;1256;59755;-70
2022/05/18 12:25:32;;;;;;;0.60;0.50;;;;;;;20.28;23.58;97933.81;109475;1256;71382;-70
2022/05/18 12:28:04;;;;;;;0.50;0.40;;;;;;;20.30;22.69;97932.40;109447;1251;68068;-71